sensor_id;sensor_type;location;lat;lon;timestamp;P1;durP1;ratioP1;P2;durP2;ratioP2
18228;SDS011;9239;50.932;3.142;2023-03-01T00:00:18;9.60;;;8.03;;
18228;SDS011;9239;50.932;3.142;2023-03-01T00:02:45;8.80;;;7.90;;
18228;SDS011;9239;50.932;3.142;2023-03-01T00:05:12;9.77;;;8.00;;
18228;SDS011;9239;50.932;3.142;2023-03-01T00:07:40;8.93;;;8.03;;
18228;SDS011;9239;50.932;3.142;2023-03-01T00:10:08;8.60;;;7.70;;
18228;SDS011;9239;50.932;3.142;2023-03-01T00:12:36;9.57;;;8.53;;
18228;SDS011;9239;50.932;3.142;2023-03-01T00:15:03;10.33;;;8.63;;
18228;SDS011;9239;50.932;3.142;2023-03-01T00:17:31;8.40;;;7.60;;
18228;SDS011;9239;50.932;3.142;2023-03-01T00:19:58;7.93;;;7.23;;
18228;SDS011;9239;50.932;3.142;2023-03-01T00:22:26;10.50;;;7.77;;
18228;SDS011;9239;50.932;3.142;2023-03-01T00:24:55;11.17;;;7.73;;
18228;SDS011;9239;50.932;3.142;2023-03-01T00:27:22;8.57;;;7.77;;
18228;SDS011;9239;50.932;3.142;2023-03-01T00:29:49;7.93;;;7.13;;
18228;SDS011;9239;50.932;3.142;2023-03-01T00:32:16;8.10;;;7.37;;
18228;SDS011;9239;50.932;3.142;2023-03-01T00:34:43;9.70;;;7.87;;
18228;SDS011;9239;50.932;3.142;2023-03-01T00:37:19;8.80;;;7.30;;
18228;SDS011;9239;50.932;3.142;2023-03-01T00:39:46;8.33;;;7.53;;
18228;SDS011;9239;50.932;3.142;2023-03-01T00:42:14;8.83;;;7.67;;
18228;SDS011;9239;50.932;3.142;2023-03-01T00:44:41;9.00;;;7.53;;
18228;SDS011;9239;50.932;3.142;2023-03-01T00:47:08;7.63;;;6.93;;
18228;SDS011;9239;50.932;3.142;2023-03-01T00:49:35;8.40;;;7.53;;
18228;SDS011;9239;50.932;3.142;2023-03-01T00:52:02;9.67;;;8.67;;
18228;SDS011;9239;50.932;3.142;2023-03-01T00:54:29;9.70;;;8.70;;
18228;SDS011;9239;50.932;3.142;2023-03-01T00:56:56;8.63;;;7.80;;
18228;SDS011;9239;50.932;3.142;2023-03-01T00:59:24;8.30;;;7.50;;
18228;SDS011;9239;50.932;3.142;2023-03-01T01:01:51;12.57;;;8.30;;
18228;SDS011;9239;50.932;3.142;2023-03-01T01:04:18;8.77;;;7.87;;
18228;SDS011;9239;50.932;3.142;2023-03-01T01:06:45;10.60;;;8.37;;
18228;SDS011;9239;50.932;3.142;2023-03-01T01:09:13;8.50;;;7.77;;
18228;SDS011;9239;50.932;3.142;2023-03-01T01:11:43;9.40;;;8.40;;
18228;SDS011;9239;50.932;3.142;2023-03-01T01:14:10;9.57;;;8.57;;
18228;SDS011;9239;50.932;3.142;2023-03-01T01:16:39;9.80;;;8.80;;
18228;SDS011;9239;50.932;3.142;2023-03-01T01:19:06;9.73;;;8.43;;
18228;SDS011;9239;50.932;3.142;2023-03-01T01:21:33;11.13;;;9.33;;
18228;SDS011;9239;50.932;3.142;2023-03-01T01:24:02;9.53;;;8.50;;
18228;SDS011;9239;50.932;3.142;2023-03-01T01:26:31;11.13;;;9.93;;
18228;SDS011;9239;50.932;3.142;2023-03-01T01:29:00;13.60;;;9.90;;
18228;SDS011;9239;50.932;3.142;2023-03-01T01:31:28;10.13;;;8.63;;
18228;SDS011;9239;50.932;3.142;2023-03-01T01:33:57;12.00;;;9.40;;
18228;SDS011;9239;50.932;3.142;2023-03-01T01:36:25;10.27;;;9.23;;
18228;SDS011;9239;50.932;3.142;2023-03-01T01:38:52;10.70;;;9.60;;
18228;SDS011;9239;50.932;3.142;2023-03-01T01:41:19;12.43;;;10.10;;
18228;SDS011;9239;50.932;3.142;2023-03-01T01:43:48;11.17;;;10.07;;
18228;SDS011;9239;50.932;3.142;2023-03-01T01:46:35;11.13;;;9.93;;
18228;SDS011;9239;50.932;3.142;2023-03-01T01:49:07;12.63;;;9.80;;
18228;SDS011;9239;50.932;3.142;2023-03-01T01:51:43;10.70;;;9.60;;
18228;SDS011;9239;50.932;3.142;2023-03-01T01:54:14;12.13;;;10.90;;
18228;SDS011;9239;50.932;3.142;2023-03-01T01:56:59;12.23;;;10.57;;
18228;SDS011;9239;50.932;3.142;2023-03-01T01:59:29;14.00;;;11.40;;
18228;SDS011;9239;50.932;3.142;2023-03-01T02:01:58;13.47;;;11.23;;
18228;SDS011;9239;50.932;3.142;2023-03-01T02:04:29;12.70;;;11.40;;
18228;SDS011;9239;50.932;3.142;2023-03-01T02:06:58;12.33;;;11.03;;
18228;SDS011;9239;50.932;3.142;2023-03-01T02:09:30;14.40;;;11.83;;
18228;SDS011;9239;50.932;3.142;2023-03-01T02:11:58;13.80;;;12.40;;
18228;SDS011;9239;50.932;3.142;2023-03-01T02:14:25;13.20;;;11.80;;
18228;SDS011;9239;50.932;3.142;2023-03-01T02:16:52;13.80;;;12.30;;
18228;SDS011;9239;50.932;3.142;2023-03-01T02:19:23;13.33;;;12.03;;
18228;SDS011;9239;50.932;3.142;2023-03-01T02:22:00;15.03;;;12.50;;
18228;SDS011;9239;50.932;3.142;2023-03-01T02:24:35;13.87;;;12.57;;
18228;SDS011;9239;50.932;3.142;2023-03-01T02:27:13;14.87;;;13.20;;
18228;SDS011;9239;50.932;3.142;2023-03-01T02:29:42;13.97;;;12.53;;
18228;SDS011;9239;50.932;3.142;2023-03-01T02:32:09;14.73;;;13.27;;
18228;SDS011;9239;50.932;3.142;2023-03-01T02:34:39;15.93;;;13.87;;
18228;SDS011;9239;50.932;3.142;2023-03-01T02:37:07;14.93;;;13.43;;
18228;SDS011;9239;50.932;3.142;2023-03-01T02:39:39;16.00;;;13.93;;
18228;SDS011;9239;50.932;3.142;2023-03-01T02:42:09;16.70;;;15.07;;
18228;SDS011;9239;50.932;3.142;2023-03-01T02:44:43;15.87;;;14.37;;
18228;SDS011;9239;50.932;3.142;2023-03-01T02:47:10;16.87;;;15.10;;
18228;SDS011;9239;50.932;3.142;2023-03-01T02:49:37;16.30;;;14.33;;
18228;SDS011;9239;50.932;3.142;2023-03-01T02:54:55;20.37;;;16.40;;
18228;SDS011;9239;50.932;3.142;2023-03-01T02:57:25;18.60;;;15.47;;
18228;SDS011;9239;50.932;3.142;2023-03-01T02:59:55;18.17;;;15.53;;
18228;SDS011;9239;50.932;3.142;2023-03-01T03:02:24;18.27;;;16.37;;
18228;SDS011;9239;50.932;3.142;2023-03-01T03:05:03;18.47;;;16.53;;
18228;SDS011;9239;50.932;3.142;2023-03-01T03:07:33;18.33;;;15.40;;
18228;SDS011;9239;50.932;3.142;2023-03-01T03:10:00;18.43;;;16.10;;
18228;SDS011;9239;50.932;3.142;2023-03-01T03:12:27;17.83;;;16.13;;
18228;SDS011;9239;50.932;3.142;2023-03-01T03:14:55;19.87;;;16.43;;
18228;SDS011;9239;50.932;3.142;2023-03-01T03:17:22;17.47;;;15.67;;
18228;SDS011;9239;50.932;3.142;2023-03-01T03:19:49;17.80;;;16.00;;
18228;SDS011;9239;50.932;3.142;2023-03-01T03:22:16;18.50;;;16.60;;
18228;SDS011;9239;50.932;3.142;2023-03-01T03:24:43;17.80;;;16.00;;
18228;SDS011;9239;50.932;3.142;2023-03-01T03:27:10;19.33;;;17.17;;
18228;SDS011;9239;50.932;3.142;2023-03-01T03:29:37;19.17;;;17.17;;
18228;SDS011;9239;50.932;3.142;2023-03-01T03:32:05;19.53;;;17.63;;
18228;SDS011;9239;50.932;3.142;2023-03-01T03:34:32;18.77;;;16.30;;
18228;SDS011;9239;50.932;3.142;2023-03-01T03:36:59;21.57;;;17.90;;
18228;SDS011;9239;50.932;3.142;2023-03-01T03:39:26;20.17;;;18.10;;
18228;SDS011;9239;50.932;3.142;2023-03-01T03:41:54;19.13;;;16.80;;
18228;SDS011;9239;50.932;3.142;2023-03-01T03:44:21;19.73;;;16.40;;
18228;SDS011;9239;50.932;3.142;2023-03-01T03:46:48;20.60;;;17.80;;
18228;SDS011;9239;50.932;3.142;2023-03-01T03:49:16;18.93;;;16.93;;
18228;SDS011;9239;50.932;3.142;2023-03-01T03:51:44;20.40;;;17.83;;
18228;SDS011;9239;50.932;3.142;2023-03-01T03:54:11;18.47;;;16.47;;
18228;SDS011;9239;50.932;3.142;2023-03-01T03:56:38;18.33;;;16.40;;
18228;SDS011;9239;50.932;3.142;2023-03-01T03:59:05;19.10;;;16.90;;
18228;SDS011;9239;50.932;3.142;2023-03-01T04:01:32;20.30;;;16.63;;
18228;SDS011;9239;50.932;3.142;2023-03-01T04:03:59;19.17;;;15.80;;
18228;SDS011;9239;50.932;3.142;2023-03-01T04:06:30;18.70;;;16.80;;
18228;SDS011;9239;50.932;3.142;2023-03-01T04:08:57;18.53;;;16.63;;
18228;SDS011;9239;50.932;3.142;2023-03-01T04:11:28;18.63;;;16.90;;
18228;SDS011;9239;50.932;3.142;2023-03-01T04:13:55;18.07;;;16.20;;
18228;SDS011;9239;50.932;3.142;2023-03-01T04:16:23;18.30;;;16.43;;
18228;SDS011;9239;50.932;3.142;2023-03-01T04:18:50;18.97;;;16.83;;
18228;SDS011;9239;50.932;3.142;2023-03-01T04:21:18;17.70;;;15.83;;
18228;SDS011;9239;50.932;3.142;2023-03-01T04:23:47;20.40;;;18.13;;
18228;SDS011;9239;50.932;3.142;2023-03-01T04:26:17;18.77;;;16.87;;
18228;SDS011;9239;50.932;3.142;2023-03-01T04:28:45;17.90;;;16.00;;
18228;SDS011;9239;50.932;3.142;2023-03-01T04:31:15;19.80;;;17.80;;
18228;SDS011;9239;50.932;3.142;2023-03-01T04:33:46;21.30;;;16.30;;
18228;SDS011;9239;50.932;3.142;2023-03-01T04:36:16;19.97;;;17.83;;
18228;SDS011;9239;50.932;3.142;2023-03-01T04:38:45;19.50;;;17.13;;
18228;SDS011;9239;50.932;3.142;2023-03-01T04:41:14;19.20;;;17.20;;
18228;SDS011;9239;50.932;3.142;2023-03-01T04:43:41;22.47;;;17.53;;
18228;SDS011;9239;50.932;3.142;2023-03-01T04:46:09;19.93;;;17.57;;
18228;SDS011;9239;50.932;3.142;2023-03-01T04:48:38;20.47;;;17.63;;
18228;SDS011;9239;50.932;3.142;2023-03-01T04:51:06;19.80;;;17.70;;
18228;SDS011;9239;50.932;3.142;2023-03-01T04:53:34;20.20;;;16.90;;
18228;SDS011;9239;50.932;3.142;2023-03-01T04:56:04;20.77;;;18.30;;
18228;SDS011;9239;50.932;3.142;2023-03-01T04:58:31;18.73;;;16.77;;
18228;SDS011;9239;50.932;3.142;2023-03-01T05:00:58;19.63;;;17.40;;
18228;SDS011;9239;50.932;3.142;2023-03-01T05:03:25;20.07;;;17.37;;
18228;SDS011;9239;50.932;3.142;2023-03-01T05:05:53;20.07;;;16.27;;
18228;SDS011;9239;50.932;3.142;2023-03-01T05:08:20;22.63;;;17.70;;
18228;SDS011;9239;50.932;3.142;2023-03-01T05:10:48;18.13;;;15.50;;
18228;SDS011;9239;50.932;3.142;2023-03-01T05:13:18;20.07;;;17.70;;
18228;SDS011;9239;50.932;3.142;2023-03-01T05:15:46;19.83;;;17.43;;
18228;SDS011;9239;50.932;3.142;2023-03-01T05:18:14;19.37;;;17.17;;
18228;SDS011;9239;50.932;3.142;2023-03-01T05:20:42;22.10;;;17.13;;
18228;SDS011;9239;50.932;3.142;2023-03-01T05:23:10;19.20;;;17.10;;
18228;SDS011;9239;50.932;3.142;2023-03-01T05:25:37;21.23;;;17.73;;
18228;SDS011;9239;50.932;3.142;2023-03-01T05:28:05;19.43;;;16.80;;
18228;SDS011;9239;50.932;3.142;2023-03-01T05:30:38;22.33;;;17.67;;
18228;SDS011;9239;50.932;3.142;2023-03-01T05:33:05;21.53;;;17.10;;
18228;SDS011;9239;50.932;3.142;2023-03-01T05:35:38;18.47;;;16.53;;
18228;SDS011;9239;50.932;3.142;2023-03-01T05:38:06;22.70;;;16.10;;
18228;SDS011;9239;50.932;3.142;2023-03-01T05:40:34;19.53;;;16.87;;
18228;SDS011;9239;50.932;3.142;2023-03-01T05:43:01;18.30;;;16.33;;
18228;SDS011;9239;50.932;3.142;2023-03-01T05:45:30;21.60;;;16.27;;
18228;SDS011;9239;50.932;3.142;2023-03-01T05:47:59;17.73;;;15.87;;
18228;SDS011;9239;50.932;3.142;2023-03-01T05:50:27;18.73;;;16.03;;
18228;SDS011;9239;50.932;3.142;2023-03-01T05:52:57;17.43;;;15.63;;
18228;SDS011;9239;50.932;3.142;2023-03-01T05:55:25;19.17;;;17.07;;
18228;SDS011;9239;50.932;3.142;2023-03-01T05:57:53;21.03;;;16.37;;
18228;SDS011;9239;50.932;3.142;2023-03-01T06:00:20;18.67;;;16.00;;
18228;SDS011;9239;50.932;3.142;2023-03-01T06:02:49;20.10;;;15.60;;
18228;SDS011;9239;50.932;3.142;2023-03-01T06:05:19;19.20;;;14.37;;
18228;SDS011;9239;50.932;3.142;2023-03-01T06:07:47;19.67;;;15.67;;
18228;SDS011;9239;50.932;3.142;2023-03-01T06:10:15;18.43;;;15.97;;
18228;SDS011;9239;50.932;3.142;2023-03-01T06:12:43;19.23;;;16.43;;
18228;SDS011;9239;50.932;3.142;2023-03-01T06:15:10;22.53;;;17.93;;
18228;SDS011;9239;50.932;3.142;2023-03-01T06:17:39;24.27;;;19.50;;
18228;SDS011;9239;50.932;3.142;2023-03-01T06:20:08;24.73;;;18.13;;
18228;SDS011;9239;50.932;3.142;2023-03-01T06:22:38;22.00;;;18.30;;
18228;SDS011;9239;50.932;3.142;2023-03-01T06:25:05;23.83;;;19.47;;
18228;SDS011;9239;50.932;3.142;2023-03-01T06:27:33;26.63;;;19.03;;
18228;SDS011;9239;50.932;3.142;2023-03-01T06:30:00;26.23;;;20.53;;
18228;SDS011;9239;50.932;3.142;2023-03-01T06:32:27;26.50;;;20.03;;
18228;SDS011;9239;50.932;3.142;2023-03-01T06:34:55;28.50;;;19.37;;
18228;SDS011;9239;50.932;3.142;2023-03-01T06:37:26;30.90;;;20.43;;
18228;SDS011;9239;50.932;3.142;2023-03-01T06:39:54;24.63;;;19.87;;
18228;SDS011;9239;50.932;3.142;2023-03-01T06:42:21;25.83;;;18.93;;
18228;SDS011;9239;50.932;3.142;2023-03-01T06:44:48;25.40;;;20.40;;
18228;SDS011;9239;50.932;3.142;2023-03-01T06:47:15;24.50;;;19.83;;
18228;SDS011;9239;50.932;3.142;2023-03-01T06:49:42;21.40;;;19.10;;
18228;SDS011;9239;50.932;3.142;2023-03-01T06:52:08;21.23;;;17.50;;
18228;SDS011;9239;50.932;3.142;2023-03-01T06:54:35;22.70;;;18.50;;
18228;SDS011;9239;50.932;3.142;2023-03-01T06:57:03;22.90;;;18.50;;
18228;SDS011;9239;50.932;3.142;2023-03-01T06:59:30;22.50;;;18.50;;
18228;SDS011;9239;50.932;3.142;2023-03-01T07:01:57;27.13;;;20.67;;
18228;SDS011;9239;50.932;3.142;2023-03-01T07:04:24;23.13;;;18.13;;
18228;SDS011;9239;50.932;3.142;2023-03-01T07:06:53;27.73;;;18.30;;
18228;SDS011;9239;50.932;3.142;2023-03-01T07:09:20;23.80;;;17.60;;
18228;SDS011;9239;50.932;3.142;2023-03-01T07:11:47;21.03;;;17.53;;
18228;SDS011;9239;50.932;3.142;2023-03-01T07:14:16;19.13;;;17.20;;
18228;SDS011;9239;50.932;3.142;2023-03-01T07:16:44;20.43;;;17.77;;
18228;SDS011;9239;50.932;3.142;2023-03-01T07:19:11;19.30;;;17.13;;
18228;SDS011;9239;50.932;3.142;2023-03-01T07:21:38;21.70;;;18.83;;
18228;SDS011;9239;50.932;3.142;2023-03-01T07:24:05;21.20;;;16.07;;
18228;SDS011;9239;50.932;3.142;2023-03-01T07:26:33;20.83;;;15.97;;
18228;SDS011;9239;50.932;3.142;2023-03-01T07:29:00;19.30;;;15.10;;
18228;SDS011;9239;50.932;3.142;2023-03-01T07:31:29;16.03;;;14.43;;
18228;SDS011;9239;50.932;3.142;2023-03-01T07:33:56;18.37;;;15.63;;
18228;SDS011;9239;50.932;3.142;2023-03-01T07:36:23;16.50;;;13.97;;
18228;SDS011;9239;50.932;3.142;2023-03-01T07:38:50;19.73;;;15.07;;
18228;SDS011;9239;50.932;3.142;2023-03-01T07:41:18;19.00;;;14.77;;
18228;SDS011;9239;50.932;3.142;2023-03-01T07:43:45;14.80;;;13.27;;
18228;SDS011;9239;50.932;3.142;2023-03-01T07:46:11;26.10;;;19.13;;
18228;SDS011;9239;50.932;3.142;2023-03-01T07:48:40;16.33;;;14.07;;
18228;SDS011;9239;50.932;3.142;2023-03-01T07:51:07;24.97;;;19.03;;
18228;SDS011;9239;50.932;3.142;2023-03-01T07:53:34;15.97;;;14.33;;
18228;SDS011;9239;50.932;3.142;2023-03-01T07:56:02;18.27;;;13.67;;
18228;SDS011;9239;50.932;3.142;2023-03-01T07:58:30;15.63;;;12.20;;
18228;SDS011;9239;50.932;3.142;2023-03-01T08:01:00;15.47;;;12.73;;
18228;SDS011;9239;50.932;3.142;2023-03-01T08:03:27;16.93;;;12.37;;
18228;SDS011;9239;50.932;3.142;2023-03-01T08:05:58;17.87;;;13.70;;
18228;SDS011;9239;50.932;3.142;2023-03-01T08:08:26;19.10;;;12.77;;
18228;SDS011;9239;50.932;3.142;2023-03-01T08:10:55;18.37;;;13.73;;
18228;SDS011;9239;50.932;3.142;2023-03-01T08:13:22;13.87;;;12.43;;
18228;SDS011;9239;50.932;3.142;2023-03-01T08:15:49;12.37;;;10.67;;
18228;SDS011;9239;50.932;3.142;2023-03-01T08:18:16;17.90;;;13.03;;
18228;SDS011;9239;50.932;3.142;2023-03-01T08:20:43;13.83;;;11.87;;
18228;SDS011;9239;50.932;3.142;2023-03-01T08:23:12;15.23;;;10.80;;
18228;SDS011;9239;50.932;3.142;2023-03-01T08:25:39;15.03;;;11.63;;
18228;SDS011;9239;50.932;3.142;2023-03-01T08:28:06;13.40;;;11.37;;
18228;SDS011;9239;50.932;3.142;2023-03-01T08:30:33;12.67;;;10.83;;
18228;SDS011;9239;50.932;3.142;2023-03-01T08:33:00;16.83;;;12.17;;
18228;SDS011;9239;50.932;3.142;2023-03-01T08:35:27;11.93;;;10.53;;
18228;SDS011;9239;50.932;3.142;2023-03-01T08:37:54;13.87;;;11.37;;
18228;SDS011;9239;50.932;3.142;2023-03-01T08:40:23;13.20;;;10.90;;
18228;SDS011;9239;50.932;3.142;2023-03-01T08:42:49;14.87;;;10.67;;
18228;SDS011;9239;50.932;3.142;2023-03-01T08:45:16;13.73;;;11.10;;
18228;SDS011;9239;50.932;3.142;2023-03-01T08:47:44;11.90;;;9.87;;
18228;SDS011;9239;50.932;3.142;2023-03-01T08:50:11;12.17;;;9.47;;
18228;SDS011;9239;50.932;3.142;2023-03-01T08:52:38;12.67;;;10.70;;
18228;SDS011;9239;50.932;3.142;2023-03-01T08:55:05;11.67;;;9.80;;
18228;SDS011;9239;50.932;3.142;2023-03-01T08:57:34;16.63;;;10.57;;
18228;SDS011;9239;50.932;3.142;2023-03-01T09:00:02;12.33;;;9.00;;
18228;SDS011;9239;50.932;3.142;2023-03-01T09:02:33;10.40;;;8.30;;
18228;SDS011;9239;50.932;3.142;2023-03-01T09:05:00;10.00;;;9.00;;
18228;SDS011;9239;50.932;3.142;2023-03-01T09:07:27;11.27;;;8.17;;
18228;SDS011;9239;50.932;3.142;2023-03-01T09:09:54;10.03;;;9.00;;
18228;SDS011;9239;50.932;3.142;2023-03-01T09:12:21;9.87;;;8.63;;
18228;SDS011;9239;50.932;3.142;2023-03-01T09:14:51;9.53;;;7.97;;
18228;SDS011;9239;50.932;3.142;2023-03-01T09:17:18;10.10;;;8.90;;
18228;SDS011;9239;50.932;3.142;2023-03-01T09:19:46;12.10;;;8.00;;
18228;SDS011;9239;50.932;3.142;2023-03-01T09:22:13;11.27;;;8.47;;
18228;SDS011;9239;50.932;3.142;2023-03-01T09:24:40;11.70;;;8.77;;
18228;SDS011;9239;50.932;3.142;2023-03-01T09:27:06;10.40;;;8.43;;
18228;SDS011;9239;50.932;3.142;2023-03-01T09:29:33;10.17;;;8.77;;
18228;SDS011;9239;50.932;3.142;2023-03-01T09:32:02;12.40;;;8.60;;
18228;SDS011;9239;50.932;3.142;2023-03-01T09:34:29;8.83;;;7.20;;
18228;SDS011;9239;50.932;3.142;2023-03-01T09:36:57;10.70;;;7.57;;
18228;SDS011;9239;50.932;3.142;2023-03-01T09:39:25;10.53;;;6.60;;
18228;SDS011;9239;50.932;3.142;2023-03-01T09:41:54;10.73;;;7.80;;
18228;SDS011;9239;50.932;3.142;2023-03-01T09:44:31;8.50;;;7.10;;
18228;SDS011;9239;50.932;3.142;2023-03-01T09:47:04;9.83;;;7.87;;
18228;SDS011;9239;50.932;3.142;2023-03-01T09:49:36;10.20;;;7.43;;
18228;SDS011;9239;50.932;3.142;2023-03-01T09:52:11;9.97;;;7.67;;
18228;SDS011;9239;50.932;3.142;2023-03-01T09:54:46;9.60;;;7.33;;
18228;SDS011;9239;50.932;3.142;2023-03-01T09:57:16;8.90;;;7.13;;
18228;SDS011;9239;50.932;3.142;2023-03-01T09:59:52;8.93;;;7.80;;
18228;SDS011;9239;50.932;3.142;2023-03-01T10:02:32;9.57;;;6.83;;
18228;SDS011;9239;50.932;3.142;2023-03-01T10:05:09;10.43;;;7.57;;
18228;SDS011;9239;50.932;3.142;2023-03-01T10:07:46;10.53;;;8.30;;
18228;SDS011;9239;50.932;3.142;2023-03-01T10:10:23;8.87;;;7.20;;
18228;SDS011;9239;50.932;3.142;2023-03-01T10:12:55;10.03;;;6.63;;
18228;SDS011;9239;50.932;3.142;2023-03-01T10:15:25;6.37;;;4.97;;
18228;SDS011;9239;50.932;3.142;2023-03-01T10:18:00;8.63;;;5.53;;
18228;SDS011;9239;50.932;3.142;2023-03-01T10:20:33;6.47;;;5.50;;
18228;SDS011;9239;50.932;3.142;2023-03-01T10:23:09;6.57;;;5.40;;
18228;SDS011;9239;50.932;3.142;2023-03-01T10:25:41;7.53;;;4.97;;
18228;SDS011;9239;50.932;3.142;2023-03-01T10:28:20;4.70;;;4.13;;
18228;SDS011;9239;50.932;3.142;2023-03-01T10:30:52;7.67;;;5.90;;
18228;SDS011;9239;50.932;3.142;2023-03-01T10:33:22;6.77;;;4.40;;
18228;SDS011;9239;50.932;3.142;2023-03-01T10:35:51;7.77;;;4.40;;
18228;SDS011;9239;50.932;3.142;2023-03-01T10:38:19;7.37;;;4.93;;
18228;SDS011;9239;50.932;3.142;2023-03-01T10:40:50;7.20;;;4.43;;
18228;SDS011;9239;50.932;3.142;2023-03-01T10:43:19;6.23;;;4.17;;
18228;SDS011;9239;50.932;3.142;2023-03-01T10:45:47;5.27;;;4.77;;
18228;SDS011;9239;50.932;3.142;2023-03-01T10:48:15;5.30;;;4.80;;
18228;SDS011;9239;50.932;3.142;2023-03-01T10:50:46;7.07;;;4.47;;
18228;SDS011;9239;50.932;3.142;2023-03-01T10:53:24;6.93;;;4.43;;
18228;SDS011;9239;50.932;3.142;2023-03-01T10:55:58;5.17;;;4.53;;
18228;SDS011;9239;50.932;3.142;2023-03-01T10:58:27;7.23;;;4.77;;
18228;SDS011;9239;50.932;3.142;2023-03-01T11:00:55;6.00;;;5.20;;
18228;SDS011;9239;50.932;3.142;2023-03-01T11:03:24;6.60;;;5.30;;
18228;SDS011;9239;50.932;3.142;2023-03-01T11:05:59;6.10;;;5.00;;
18228;SDS011;9239;50.932;3.142;2023-03-01T11:08:32;5.60;;;5.00;;
18228;SDS011;9239;50.932;3.142;2023-03-01T11:11:18;5.77;;;4.83;;
18228;SDS011;9239;50.932;3.142;2023-03-01T11:13:58;6.03;;;5.37;;
18228;SDS011;9239;50.932;3.142;2023-03-01T11:16:31;7.60;;;4.93;;
18228;SDS011;9239;50.932;3.142;2023-03-01T11:19:12;6.87;;;4.97;;
18228;SDS011;9239;50.932;3.142;2023-03-01T11:21:44;7.03;;;4.90;;
18228;SDS011;9239;50.932;3.142;2023-03-01T11:24:18;6.00;;;4.83;;
18228;SDS011;9239;50.932;3.142;2023-03-01T11:26:50;5.33;;;4.73;;
18228;SDS011;9239;50.932;3.142;2023-03-01T11:29:21;5.53;;;4.83;;
18228;SDS011;9239;50.932;3.142;2023-03-01T11:31:56;7.17;;;5.17;;
18228;SDS011;9239;50.932;3.142;2023-03-01T11:34:31;6.13;;;4.90;;
18228;SDS011;9239;50.932;3.142;2023-03-01T11:37:12;8.70;;;7.80;;
18228;SDS011;9239;50.932;3.142;2023-03-01T11:39:53;5.47;;;4.70;;
18228;SDS011;9239;50.932;3.142;2023-03-01T11:42:26;7.40;;;6.07;;
18228;SDS011;9239;50.932;3.142;2023-03-01T11:45:05;6.40;;;5.40;;
18228;SDS011;9239;50.932;3.142;2023-03-01T11:47:40;6.73;;;5.80;;
18228;SDS011;9239;50.932;3.142;2023-03-01T11:50:19;6.50;;;5.07;;
18228;SDS011;9239;50.932;3.142;2023-03-01T11:52:56;5.80;;;5.07;;
18228;SDS011;9239;50.932;3.142;2023-03-01T11:55:30;5.50;;;4.83;;
18228;SDS011;9239;50.932;3.142;2023-03-01T11:58:14;5.30;;;4.53;;
18228;SDS011;9239;50.932;3.142;2023-03-01T12:00:56;4.70;;;4.30;;
18228;SDS011;9239;50.932;3.142;2023-03-01T12:03:45;5.57;;;4.50;;
18228;SDS011;9239;50.932;3.142;2023-03-01T12:06:24;5.10;;;4.57;;
18228;SDS011;9239;50.932;3.142;2023-03-01T12:09:04;6.83;;;4.90;;
18228;SDS011;9239;50.932;3.142;2023-03-01T12:11:44;6.20;;;5.03;;
18228;SDS011;9239;50.932;3.142;2023-03-01T12:14:35;5.53;;;4.80;;
18228;SDS011;9239;50.932;3.142;2023-03-01T12:17:25;5.17;;;4.67;;
18228;SDS011;9239;50.932;3.142;2023-03-01T12:20:25;5.53;;;4.40;;
18228;SDS011;9239;50.932;3.142;2023-03-01T12:26:01;6.03;;;4.53;;
18228;SDS011;9239;50.932;3.142;2023-03-01T12:28:39;7.07;;;5.30;;
18228;SDS011;9239;50.932;3.142;2023-03-01T12:34:25;6.40;;;4.70;;
18228;SDS011;9239;50.932;3.142;2023-03-01T12:37:12;6.40;;;5.03;;
18228;SDS011;9239;50.932;3.142;2023-03-01T12:39:51;6.90;;;5.47;;
18228;SDS011;9239;50.932;3.142;2023-03-01T12:42:32;6.43;;;4.63;;
18228;SDS011;9239;50.932;3.142;2023-03-01T12:45:12;5.07;;;4.30;;
18228;SDS011;9239;50.932;3.142;2023-03-01T12:47:55;6.23;;;5.63;;
18228;SDS011;9239;50.932;3.142;2023-03-01T12:50:34;5.53;;;5.03;;
18228;SDS011;9239;50.932;3.142;2023-03-01T12:53:07;6.43;;;5.10;;
18228;SDS011;9239;50.932;3.142;2023-03-01T12:55:45;7.40;;;5.07;;
18228;SDS011;9239;50.932;3.142;2023-03-01T12:58:19;6.07;;;5.20;;
18228;SDS011;9239;50.932;3.142;2023-03-01T13:00:57;6.43;;;4.90;;
18228;SDS011;9239;50.932;3.142;2023-03-01T13:03:43;6.47;;;4.67;;
18228;SDS011;9239;50.932;3.142;2023-03-01T13:06:24;5.03;;;4.50;;
18228;SDS011;9239;50.932;3.142;2023-03-01T13:08:56;5.73;;;5.13;;
18228;SDS011;9239;50.932;3.142;2023-03-01T13:11:28;5.23;;;4.60;;
18228;SDS011;9239;50.932;3.142;2023-03-01T13:16:56;6.47;;;4.87;;
18228;SDS011;9239;50.932;3.142;2023-03-01T13:19:24;5.33;;;4.83;;
18228;SDS011;9239;50.932;3.142;2023-03-01T13:21:54;6.33;;;5.67;;
18228;SDS011;9239;50.932;3.142;2023-03-01T13:24:25;7.80;;;5.10;;
18228;SDS011;9239;50.932;3.142;2023-03-01T13:27:09;5.23;;;4.73;;
18228;SDS011;9239;50.932;3.142;2023-03-01T13:29:51;7.90;;;5.37;;
18228;SDS011;9239;50.932;3.142;2023-03-01T13:32:21;6.87;;;4.70;;
18228;SDS011;9239;50.932;3.142;2023-03-01T13:34:53;5.53;;;4.57;;
18228;SDS011;9239;50.932;3.142;2023-03-01T13:37:32;5.97;;;5.37;;
18228;SDS011;9239;50.932;3.142;2023-03-01T13:40:01;5.60;;;5.07;;
18228;SDS011;9239;50.932;3.142;2023-03-01T13:42:39;5.33;;;4.80;;
18228;SDS011;9239;50.932;3.142;2023-03-01T13:45:15;9.30;;;5.10;;
18228;SDS011;9239;50.932;3.142;2023-03-01T13:47:48;5.17;;;4.43;;
18228;SDS011;9239;50.932;3.142;2023-03-01T13:50:18;5.83;;;4.80;;
18228;SDS011;9239;50.932;3.142;2023-03-01T13:52:50;7.53;;;5.07;;
18228;SDS011;9239;50.932;3.142;2023-03-01T13:55:23;7.40;;;4.93;;
18228;SDS011;9239;50.932;3.142;2023-03-01T13:57:53;4.63;;;4.20;;
18228;SDS011;9239;50.932;3.142;2023-03-01T14:00:27;6.87;;;4.80;;
18228;SDS011;9239;50.932;3.142;2023-03-01T14:03:02;6.97;;;4.73;;
18228;SDS011;9239;50.932;3.142;2023-03-01T14:05:31;5.20;;;4.70;;
18228;SDS011;9239;50.932;3.142;2023-03-01T14:07:58;6.07;;;5.23;;
18228;SDS011;9239;50.932;3.142;2023-03-01T14:10:25;5.57;;;5.00;;
18228;SDS011;9239;50.932;3.142;2023-03-01T14:13:04;8.10;;;5.43;;
18228;SDS011;9239;50.932;3.142;2023-03-01T14:15:44;8.20;;;5.93;;
18228;SDS011;9239;50.932;3.142;2023-03-01T14:18:18;5.73;;;5.17;;
18228;SDS011;9239;50.932;3.142;2023-03-01T14:20:51;6.00;;;4.97;;
18228;SDS011;9239;50.932;3.142;2023-03-01T14:23:18;5.17;;;4.67;;
18228;SDS011;9239;50.932;3.142;2023-03-01T14:25:47;6.17;;;4.70;;
18228;SDS011;9239;50.932;3.142;2023-03-01T14:28:16;6.67;;;4.77;;
18228;SDS011;9239;50.932;3.142;2023-03-01T14:30:46;5.87;;;5.27;;
18228;SDS011;9239;50.932;3.142;2023-03-01T14:33:19;6.43;;;4.97;;
18228;SDS011;9239;50.932;3.142;2023-03-01T14:35:53;7.70;;;5.17;;
18228;SDS011;9239;50.932;3.142;2023-03-01T14:38:28;5.67;;;5.13;;
18228;SDS011;9239;50.932;3.142;2023-03-01T14:40:58;7.53;;;5.70;;
18228;SDS011;9239;50.932;3.142;2023-03-01T14:43:27;8.20;;;5.67;;
18228;SDS011;9239;50.932;3.142;2023-03-01T14:45:56;6.13;;;5.23;;
18228;SDS011;9239;50.932;3.142;2023-03-01T14:48:24;7.37;;;5.00;;
18228;SDS011;9239;50.932;3.142;2023-03-01T14:50:54;5.87;;;5.30;;
18228;SDS011;9239;50.932;3.142;2023-03-01T14:53:22;6.60;;;5.10;;
18228;SDS011;9239;50.932;3.142;2023-03-01T14:55:52;5.07;;;4.53;;
18228;SDS011;9239;50.932;3.142;2023-03-01T14:58:21;4.50;;;4.10;;
18228;SDS011;9239;50.932;3.142;2023-03-01T15:00:50;5.70;;;5.20;;
18228;SDS011;9239;50.932;3.142;2023-03-01T15:03:21;5.37;;;4.83;;
18228;SDS011;9239;50.932;3.142;2023-03-01T15:05:53;5.77;;;4.93;;
18228;SDS011;9239;50.932;3.142;2023-03-01T15:08:21;7.33;;;5.07;;
18228;SDS011;9239;50.932;3.142;2023-03-01T15:10:57;6.37;;;4.57;;
18228;SDS011;9239;50.932;3.142;2023-03-01T15:13:28;6.67;;;5.17;;
18228;SDS011;9239;50.932;3.142;2023-03-01T15:16:01;6.53;;;5.20;;
18228;SDS011;9239;50.932;3.142;2023-03-01T15:18:33;5.93;;;5.00;;